sensor_id;sensor_type;location;lat;lon;timestamp;P1;durP1;ratioP1;P2;durP2;ratioP2
74465;SDS011;62916;50.044;15.938;2023-01-10T00:00:26;2.00;;;1.60;;
74465;SDS011;62916;50.044;15.938;2023-01-10T00:03:02;2.60;;;1.80;;
74465;SDS011;62916;50.044;15.938;2023-01-10T00:05:34;2.50;;;1.60;;
74465;SDS011;62916;50.044;15.938;2023-01-10T00:08:06;2.20;;;1.90;;
74465;SDS011;62916;50.044;15.938;2023-01-10T00:10:41;1.80;;;1.70;;
74465;SDS011;62916;50.044;15.938;2023-01-10T00:13:14;2.20;;;1.70;;
74465;SDS011;62916;50.044;15.938;2023-01-10T00:15:52;2.00;;;1.80;;
74465;SDS011;62916;50.044;15.938;2023-01-10T00:18:23;3.00;;;1.90;;
74465;SDS011;62916;50.044;15.938;2023-01-10T00:20:54;1.80;;;1.60;;
74465;SDS011;62916;50.044;15.938;2023-01-10T00:23:25;2.30;;;2.10;;
74465;SDS011;62916;50.044;15.938;2023-01-10T00:25:56;2.20;;;1.80;;
74465;SDS011;62916;50.044;15.938;2023-01-10T00:28:27;2.60;;;1.90;;
74465;SDS011;62916;50.044;15.938;2023-01-10T00:31:01;1.90;;;1.70;;
74465;SDS011;62916;50.044;15.938;2023-01-10T00:33:34;2.00;;;1.70;;
74465;SDS011;62916;50.044;15.938;2023-01-10T00:36:05;1.80;;;1.70;;
74465;SDS011;62916;50.044;15.938;2023-01-10T00:38:37;2.00;;;1.80;;
74465;SDS011;62916;50.044;15.938;2023-01-10T00:41:08;2.10;;;1.80;;
74465;SDS011;62916;50.044;15.938;2023-01-10T00:43:53;2.20;;;2.00;;
74465;SDS011;62916;50.044;15.938;2023-01-10T00:46:26;3.50;;;1.70;;
74465;SDS011;62916;50.044;15.938;2023-01-10T00:48:57;2.20;;;2.00;;
74465;SDS011;62916;50.044;15.938;2023-01-10T00:51:33;2.10;;;1.90;;
74465;SDS011;62916;50.044;15.938;2023-01-10T00:54:04;2.10;;;1.90;;
74465;SDS011;62916;50.044;15.938;2023-01-10T00:56:36;2.00;;;1.80;;
74465;SDS011;62916;50.044;15.938;2023-01-10T00:59:07;3.30;;;1.60;;
74465;SDS011;62916;50.044;15.938;2023-01-10T01:01:38;2.10;;;1.90;;
74465;SDS011;62916;50.044;15.938;2023-01-10T01:04:09;2.10;;;1.90;;
74465;SDS011;62916;50.044;15.938;2023-01-10T01:06:40;2.90;;;2.70;;
74465;SDS011;62916;50.044;15.938;2023-01-10T01:09:14;1.90;;;1.80;;
74465;SDS011;62916;50.044;15.938;2023-01-10T01:11:45;2.30;;;1.80;;
74465;SDS011;62916;50.044;15.938;2023-01-10T01:14:16;2.30;;;2.10;;
74465;SDS011;62916;50.044;15.938;2023-01-10T01:16:47;2.30;;;1.80;;
74465;SDS011;62916;50.044;15.938;2023-01-10T01:19:18;2.70;;;2.00;;
74465;SDS011;62916;50.044;15.938;2023-01-10T01:21:48;2.20;;;1.80;;
74465;SDS011;62916;50.044;15.938;2023-01-10T01:24:19;2.70;;;2.50;;
74465;SDS011;62916;50.044;15.938;2023-01-10T01:26:51;2.00;;;1.60;;
74465;SDS011;62916;50.044;15.938;2023-01-10T01:29:22;2.20;;;1.50;;
74465;SDS011;62916;50.044;15.938;2023-01-10T01:32:09;2.00;;;1.60;;
74465;SDS011;62916;50.044;15.938;2023-01-10T01:34:40;2.50;;;2.00;;
74465;SDS011;62916;50.044;15.938;2023-01-10T01:37:10;2.30;;;1.70;;
74465;SDS011;62916;50.044;15.938;2023-01-10T01:39:41;2.30;;;1.80;;
74465;SDS011;62916;50.044;15.938;2023-01-10T01:42:19;2.40;;;1.80;;
74465;SDS011;62916;50.044;15.938;2023-01-10T01:47:58;2.00;;;1.80;;
74465;SDS011;62916;50.044;15.938;2023-01-10T01:50:35;2.70;;;1.70;;
74465;SDS011;62916;50.044;15.938;2023-01-10T01:53:11;2.20;;;1.90;;
74465;SDS011;62916;50.044;15.938;2023-01-10T01:55:45;2.20;;;2.00;;
74465;SDS011;62916;50.044;15.938;2023-01-10T01:58:17;2.30;;;1.60;;
74465;SDS011;62916;50.044;15.938;2023-01-10T02:00:56;1.60;;;1.50;;
74465;SDS011;62916;50.044;15.938;2023-01-10T02:03:27;2.00;;;1.50;;
74465;SDS011;62916;50.044;15.938;2023-01-10T02:05:59;1.90;;;1.70;;
74465;SDS011;62916;50.044;15.938;2023-01-10T02:08:31;2.00;;;1.60;;
74465;SDS011;62916;50.044;15.938;2023-01-10T02:11:04;2.40;;;1.70;;
74465;SDS011;62916;50.044;15.938;2023-01-10T02:13:38;2.60;;;2.00;;
74465;SDS011;62916;50.044;15.938;2023-01-10T02:16:12;2.10;;;1.60;;
74465;SDS011;62916;50.044;15.938;2023-01-10T02:18:43;2.10;;;1.70;;
74465;SDS011;62916;50.044;15.938;2023-01-10T02:24:16;2.00;;;1.70;;
74465;SDS011;62916;50.044;15.938;2023-01-10T02:27:19;2.10;;;1.60;;
74465;SDS011;62916;50.044;15.938;2023-01-10T02:33:00;1.70;;;1.60;;
74465;SDS011;62916;50.044;15.938;2023-01-10T02:35:45;1.90;;;1.50;;
74465;SDS011;62916;50.044;15.938;2023-01-10T02:38:26;2.50;;;1.70;;
74465;SDS011;62916;50.044;15.938;2023-01-10T02:41:11;1.90;;;1.50;;
74465;SDS011;62916;50.044;15.938;2023-01-10T02:43:49;2.50;;;1.60;;
74465;SDS011;62916;50.044;15.938;2023-01-10T02:46:25;1.50;;;1.40;;
74465;SDS011;62916;50.044;15.938;2023-01-10T02:48:58;2.00;;;1.80;;
74465;SDS011;62916;50.044;15.938;2023-01-10T02:51:29;2.00;;;1.60;;
74465;SDS011;62916;50.044;15.938;2023-01-10T02:54:01;2.00;;;1.70;;
74465;SDS011;62916;50.044;15.938;2023-01-10T02:56:40;2.00;;;1.40;;
74465;SDS011;62916;50.044;15.938;2023-01-10T02:59:40;1.80;;;1.30;;
74465;SDS011;62916;50.044;15.938;2023-01-10T03:02:31;1.90;;;1.60;;
74465;SDS011;62916;50.044;15.938;2023-01-10T03:05:16;1.70;;;1.60;;
74465;SDS011;62916;50.044;15.938;2023-01-10T03:07:55;1.70;;;1.60;;
74465;SDS011;62916;50.044;15.938;2023-01-10T03:10:37;2.30;;;1.80;;
74465;SDS011;62916;50.044;15.938;2023-01-10T03:13:17;1.90;;;1.70;;
74465;SDS011;62916;50.044;15.938;2023-01-10T03:15:54;2.00;;;1.60;;
74465;SDS011;62916;50.044;15.938;2023-01-10T03:18:29;3.00;;;1.60;;
74465;SDS011;62916;50.044;15.938;2023-01-10T03:21:03;2.10;;;1.80;;
74465;SDS011;62916;50.044;15.938;2023-01-10T03:23:35;1.60;;;1.50;;
74465;SDS011;62916;50.044;15.938;2023-01-10T03:26:08;1.80;;;1.50;;
74465;SDS011;62916;50.044;15.938;2023-01-10T03:28:43;2.40;;;1.80;;
74465;SDS011;62916;50.044;15.938;2023-01-10T03:31:17;2.00;;;1.50;;
74465;SDS011;62916;50.044;15.938;2023-01-10T03:33:52;2.10;;;1.90;;
74465;SDS011;62916;50.044;15.938;2023-01-10T03:36:25;2.00;;;1.60;;
74465;SDS011;62916;50.044;15.938;2023-01-10T03:39:01;1.70;;;1.50;;
74465;SDS011;62916;50.044;15.938;2023-01-10T03:41:39;2.20;;;1.50;;
74465;SDS011;62916;50.044;15.938;2023-01-10T03:44:16;1.80;;;1.40;;
74465;SDS011;62916;50.044;15.938;2023-01-10T03:47:10;1.90;;;1.50;;
74465;SDS011;62916;50.044;15.938;2023-01-10T03:49:53;1.80;;;1.40;;
74465;SDS011;62916;50.044;15.938;2023-01-10T03:52:26;1.60;;;1.50;;
74465;SDS011;62916;50.044;15.938;2023-01-10T03:57:30;1.30;;;1.20;;
74465;SDS011;62916;50.044;15.938;2023-01-10T04:00:01;1.50;;;1.40;;
74465;SDS011;62916;50.044;15.938;2023-01-10T04:02:32;1.70;;;1.50;;
74465;SDS011;62916;50.044;15.938;2023-01-10T04:05:04;2.30;;;1.50;;
74465;SDS011;62916;50.044;15.938;2023-01-10T04:07:36;2.50;;;1.70;;
74465;SDS011;62916;50.044;15.938;2023-01-10T04:10:07;1.50;;;1.40;;
74465;SDS011;62916;50.044;15.938;2023-01-10T04:12:39;1.50;;;1.40;;
74465;SDS011;62916;50.044;15.938;2023-01-10T04:15:10;1.80;;;1.60;;
74465;SDS011;62916;50.044;15.938;2023-01-10T04:17:41;2.00;;;1.60;;
74465;SDS011;62916;50.044;15.938;2023-01-10T04:20:12;1.80;;;1.40;;
74465;SDS011;62916;50.044;15.938;2023-01-10T04:22:44;1.50;;;1.20;;
74465;SDS011;62916;50.044;15.938;2023-01-10T04:25:17;1.70;;;1.50;;
74465;SDS011;62916;50.044;15.938;2023-01-10T04:27:49;2.20;;;2.00;;
74465;SDS011;62916;50.044;15.938;2023-01-10T04:30:20;1.90;;;1.40;;
74465;SDS011;62916;50.044;15.938;2023-01-10T04:32:51;2.00;;;1.30;;
74465;SDS011;62916;50.044;15.938;2023-01-10T04:35:22;1.70;;;1.30;;
74465;SDS011;62916;50.044;15.938;2023-01-10T04:37:53;1.70;;;1.40;;
74465;SDS011;62916;50.044;15.938;2023-01-10T04:40:24;1.60;;;1.30;;
74465;SDS011;62916;50.044;15.938;2023-01-10T04:42:54;1.80;;;1.50;;
74465;SDS011;62916;50.044;15.938;2023-01-10T04:45:25;3.90;;;1.50;;
74465;SDS011;62916;50.044;15.938;2023-01-10T04:47:56;1.90;;;1.40;;
74465;SDS011;62916;50.044;15.938;2023-01-10T04:50:27;2.70;;;2.00;;
74465;SDS011;62916;50.044;15.938;2023-01-10T04:52:58;5.30;;;1.80;;
74465;SDS011;62916;50.044;15.938;2023-01-10T04:55:28;2.80;;;1.60;;
74465;SDS011;62916;50.044;15.938;2023-01-10T04:57:59;10.80;;;2.80;;
74465;SDS011;62916;50.044;15.938;2023-01-10T05:00:31;7.70;;;2.50;;
74465;SDS011;62916;50.044;15.938;2023-01-10T05:03:02;8.70;;;2.40;;
74465;SDS011;62916;50.044;15.938;2023-01-10T05:05:33;10.20;;;2.40;;
74465;SDS011;62916;50.044;15.938;2023-01-10T05:08:04;8.40;;;2.50;;
74465;SDS011;62916;50.044;15.938;2023-01-10T05:10:35;11.20;;;2.50;;
74465;SDS011;62916;50.044;15.938;2023-01-10T05:13:06;10.40;;;2.20;;
74465;SDS011;62916;50.044;15.938;2023-01-10T05:15:37;10.20;;;2.90;;
74465;SDS011;62916;50.044;15.938;2023-01-10T05:18:07;7.30;;;2.50;;
74465;SDS011;62916;50.044;15.938;2023-01-10T05:20:38;8.30;;;2.10;;
74465;SDS011;62916;50.044;15.938;2023-01-10T05:23:09;12.20;;;2.90;;
74465;SDS011;62916;50.044;15.938;2023-01-10T05:25:40;5.40;;;2.10;;
74465;SDS011;62916;50.044;15.938;2023-01-10T05:28:10;6.10;;;1.80;;
74465;SDS011;62916;50.044;15.938;2023-01-10T05:30:41;6.90;;;2.10;;
74465;SDS011;62916;50.044;15.938;2023-01-10T05:33:12;7.20;;;2.20;;
74465;SDS011;62916;50.044;15.938;2023-01-10T05:35:43;6.30;;;2.10;;
74465;SDS011;62916;50.044;15.938;2023-01-10T05:38:14;5.80;;;2.00;;
74465;SDS011;62916;50.044;15.938;2023-01-10T05:40:45;6.90;;;2.00;;
74465;SDS011;62916;50.044;15.938;2023-01-10T05:43:16;6.90;;;2.10;;
74465;SDS011;62916;50.044;15.938;2023-01-10T05:45:47;5.30;;;2.20;;
74465;SDS011;62916;50.044;15.938;2023-01-10T05:48:19;2.70;;;1.70;;
74465;SDS011;62916;50.044;15.938;2023-01-10T05:50:50;3.20;;;1.70;;
74465;SDS011;62916;50.044;15.938;2023-01-10T05:53:21;5.00;;;1.90;;
74465;SDS011;62916;50.044;15.938;2023-01-10T05:55:53;2.50;;;1.50;;
74465;SDS011;62916;50.044;15.938;2023-01-10T05:58:24;6.10;;;1.60;;
74465;SDS011;62916;50.044;15.938;2023-01-10T06:00:56;5.50;;;1.70;;
74465;SDS011;62916;50.044;15.938;2023-01-10T06:03:27;5.70;;;1.60;;
74465;SDS011;62916;50.044;15.938;2023-01-10T06:05:58;5.50;;;2.50;;
74465;SDS011;62916;50.044;15.938;2023-01-10T06:08:30;5.30;;;1.70;;
74465;SDS011;62916;50.044;15.938;2023-01-10T06:11:04;3.20;;;1.90;;
74465;SDS011;62916;50.044;15.938;2023-01-10T06:13:35;4.90;;;1.40;;
74465;SDS011;62916;50.044;15.938;2023-01-10T06:16:06;3.40;;;1.60;;
74465;SDS011;62916;50.044;15.938;2023-01-10T06:18:37;3.70;;;1.60;;
74465;SDS011;62916;50.044;15.938;2023-01-10T06:21:08;4.60;;;1.70;;
74465;SDS011;62916;50.044;15.938;2023-01-10T06:23:39;4.80;;;1.60;;
74465;SDS011;62916;50.044;15.938;2023-01-10T06:26:10;3.80;;;1.40;;
74465;SDS011;62916;50.044;15.938;2023-01-10T06:28:41;3.00;;;1.40;;
74465;SDS011;62916;50.044;15.938;2023-01-10T06:31:12;3.60;;;1.30;;
74465;SDS011;62916;50.044;15.938;2023-01-10T06:33:43;3.60;;;1.40;;
74465;SDS011;62916;50.044;15.938;2023-01-10T06:36:13;2.20;;;1.30;;
74465;SDS011;62916;50.044;15.938;2023-01-10T06:38:44;3.30;;;1.70;;
74465;SDS011;62916;50.044;15.938;2023-01-10T06:41:15;3.40;;;1.70;;
74465;SDS011;62916;50.044;15.938;2023-01-10T06:43:47;3.60;;;1.80;;
74465;SDS011;62916;50.044;15.938;2023-01-10T06:46:18;2.60;;;1.20;;
74465;SDS011;62916;50.044;15.938;2023-01-10T06:48:49;2.50;;;1.50;;
74465;SDS011;62916;50.044;15.938;2023-01-10T06:51:20;3.00;;;1.40;;
74465;SDS011;62916;50.044;15.938;2023-01-10T06:53:51;5.20;;;1.30;;
74465;SDS011;62916;50.044;15.938;2023-01-10T06:56:22;2.20;;;1.60;;
74465;SDS011;62916;50.044;15.938;2023-01-10T06:58:52;2.80;;;1.30;;
74465;SDS011;62916;50.044;15.938;2023-01-10T07:01:23;3.40;;;1.40;;
74465;SDS011;62916;50.044;15.938;2023-01-10T07:03:55;2.00;;;1.20;;
74465;SDS011;62916;50.044;15.938;2023-01-10T07:06:26;2.50;;;1.50;;
74465;SDS011;62916;50.044;15.938;2023-01-10T07:08:57;2.20;;;1.60;;
74465;SDS011;62916;50.044;15.938;2023-01-10T07:11:27;2.80;;;1.10;;
74465;SDS011;62916;50.044;15.938;2023-01-10T07:13:58;2.60;;;1.20;;
74465;SDS011;62916;50.044;15.938;2023-01-10T07:16:29;2.70;;;1.20;;
74465;SDS011;62916;50.044;15.938;2023-01-10T07:19:00;2.50;;;1.20;;
74465;SDS011;62916;50.044;15.938;2023-01-10T07:21:31;2.50;;;1.50;;
74465;SDS011;62916;50.044;15.938;2023-01-10T07:24:02;1.90;;;1.30;;
74465;SDS011;62916;50.044;15.938;2023-01-10T07:26:33;2.80;;;1.50;;
74465;SDS011;62916;50.044;15.938;2023-01-10T07:29:04;2.50;;;1.60;;
74465;SDS011;62916;50.044;15.938;2023-01-10T07:31:35;2.20;;;1.10;;
74465;SDS011;62916;50.044;15.938;2023-01-10T07:34:06;2.10;;;1.40;;
74465;SDS011;62916;50.044;15.938;2023-01-10T07:36:36;1.80;;;1.20;;
74465;SDS011;62916;50.044;15.938;2023-01-10T07:39:07;2.50;;;1.20;;
74465;SDS011;62916;50.044;15.938;2023-01-10T07:41:38;1.80;;;1.20;;
74465;SDS011;62916;50.044;15.938;2023-01-10T07:44:09;1.90;;;1.60;;
74465;SDS011;62916;50.044;15.938;2023-01-10T07:46:40;1.60;;;1.00;;
74465;SDS011;62916;50.044;15.938;2023-01-10T07:49:11;1.60;;;1.00;;
74465;SDS011;62916;50.044;15.938;2023-01-10T07:51:42;1.60;;;1.20;;
74465;SDS011;62916;50.044;15.938;2023-01-10T07:54:13;2.90;;;0.90;;
74465;SDS011;62916;50.044;15.938;2023-01-10T07:56:44;1.60;;;1.30;;
74465;SDS011;62916;50.044;15.938;2023-01-10T07:59:16;1.90;;;1.10;;
74465;SDS011;62916;50.044;15.938;2023-01-10T08:01:47;2.10;;;1.20;;
74465;SDS011;62916;50.044;15.938;2023-01-10T08:04:18;2.00;;;1.10;;
74465;SDS011;62916;50.044;15.938;2023-01-10T08:06:48;1.30;;;1.20;;
74465;SDS011;62916;50.044;15.938;2023-01-10T08:09:21;1.20;;;0.90;;
74465;SDS011;62916;50.044;15.938;2023-01-10T08:11:52;1.30;;;1.20;;
74465;SDS011;62916;50.044;15.938;2023-01-10T08:14:23;1.20;;;0.80;;
74465;SDS011;62916;50.044;15.938;2023-01-10T08:16:54;2.20;;;1.40;;
74465;SDS011;62916;50.044;15.938;2023-01-10T08:19:24;2.70;;;1.10;;
74465;SDS011;62916;50.044;15.938;2023-01-10T08:21:57;1.80;;;1.40;;
74465;SDS011;62916;50.044;15.938;2023-01-10T08:24:29;1.40;;;1.30;;
74465;SDS011;62916;50.044;15.938;2023-01-10T08:27:00;2.30;;;0.90;;
74465;SDS011;62916;50.044;15.938;2023-01-10T08:29:32;1.60;;;1.00;;
74465;SDS011;62916;50.044;15.938;2023-01-10T08:32:03;1.40;;;1.20;;
74465;SDS011;62916;50.044;15.938;2023-01-10T08:34:34;2.10;;;1.20;;
74465;SDS011;62916;50.044;15.938;2023-01-10T08:37:05;1.50;;;1.40;;
74465;SDS011;62916;50.044;15.938;2023-01-10T08:39:36;1.20;;;1.10;;
74465;SDS011;62916;50.044;15.938;2023-01-10T08:42:07;1.60;;;1.00;;
74465;SDS011;62916;50.044;15.938;2023-01-10T08:44:38;1.40;;;1.10;;
74465;SDS011;62916;50.044;15.938;2023-01-10T08:47:08;1.30;;;1.00;;
74465;SDS011;62916;50.044;15.938;2023-01-10T08:49:39;1.80;;;1.30;;
74465;SDS011;62916;50.044;15.938;2023-01-10T08:52:10;2.60;;;1.00;;
74465;SDS011;62916;50.044;15.938;2023-01-10T08:54:41;1.80;;;1.10;;
74465;SDS011;62916;50.044;15.938;2023-01-10T08:57:12;1.40;;;1.00;;
74465;SDS011;62916;50.044;15.938;2023-01-10T08:59:43;1.90;;;1.30;;
74465;SDS011;62916;50.044;15.938;2023-01-10T09:02:14;1.10;;;0.80;;
74465;SDS011;62916;50.044;15.938;2023-01-10T09:04:45;1.40;;;1.00;;
74465;SDS011;62916;50.044;15.938;2023-01-10T09:07:16;1.20;;;0.90;;
74465;SDS011;62916;50.044;15.938;2023-01-10T09:09:46;2.30;;;0.80;;
74465;SDS011;62916;50.044;15.938;2023-01-10T09:12:17;1.50;;;1.40;;
74465;SDS011;62916;50.044;15.938;2023-01-10T09:15:07;1.70;;;0.90;;
74465;SDS011;62916;50.044;15.938;2023-01-10T09:17:39;1.50;;;1.10;;
74465;SDS011;62916;50.044;15.938;2023-01-10T09:20:10;1.60;;;1.00;;
74465;SDS011;62916;50.044;15.938;2023-01-10T09:22:41;1.70;;;1.00;;
74465;SDS011;62916;50.044;15.938;2023-01-10T09:25:12;1.50;;;1.00;;
74465;SDS011;62916;50.044;15.938;2023-01-10T09:27:43;1.10;;;0.80;;
74465;SDS011;62916;50.044;15.938;2023-01-10T09:30:14;2.10;;;1.10;;
74465;SDS011;62916;50.044;15.938;2023-01-10T09:32:49;1.20;;;1.10;;
74465;SDS011;62916;50.044;15.938;2023-01-10T09:35:20;1.30;;;1.10;;
74465;SDS011;62916;50.044;15.938;2023-01-10T09:37:53;1.60;;;1.10;;
74465;SDS011;62916;50.044;15.938;2023-01-10T09:40:30;1.30;;;1.00;;
74465;SDS011;62916;50.044;15.938;2023-01-10T09:43:14;2.30;;;1.10;;
74465;SDS011;62916;50.044;15.938;2023-01-10T09:45:52;1.40;;;0.90;;
74465;SDS011;62916;50.044;15.938;2023-01-10T09:48:33;1.40;;;1.00;;
74465;SDS011;62916;50.044;15.938;2023-01-10T09:51:11;1.40;;;0.90;;
74465;SDS011;62916;50.044;15.938;2023-01-10T09:53:52;1.60;;;0.90;;
74465;SDS011;62916;50.044;15.938;2023-01-10T09:56:38;2.50;;;1.30;;
74465;SDS011;62916;50.044;15.938;2023-01-10T09:59:12;1.20;;;0.90;;
74465;SDS011;62916;50.044;15.938;2023-01-10T10:01:47;1.60;;;1.30;;
74465;SDS011;62916;50.044;15.938;2023-01-10T10:04:22;1.60;;;1.20;;
74465;SDS011;62916;50.044;15.938;2023-01-10T10:06:58;1.50;;;1.10;;
74465;SDS011;62916;50.044;15.938;2023-01-10T10:09:31;2.00;;;1.00;;
74465;SDS011;62916;50.044;15.938;2023-01-10T10:12:07;1.20;;;1.00;;
74465;SDS011;62916;50.044;15.938;2023-01-10T10:14:57;1.80;;;1.10;;
74465;SDS011;62916;50.044;15.938;2023-01-10T10:17:42;1.50;;;0.90;;
74465;SDS011;62916;50.044;15.938;2023-01-10T10:20:23;1.40;;;0.90;;
74465;SDS011;62916;50.044;15.938;2023-01-10T10:23:04;1.40;;;1.30;;
74465;SDS011;62916;50.044;15.938;2023-01-10T10:25:49;1.60;;;1.00;;
74465;SDS011;62916;50.044;15.938;2023-01-10T10:28:39;1.30;;;0.90;;
74465;SDS011;62916;50.044;15.938;2023-01-10T10:31:31;1.20;;;1.00;;
74465;SDS011;62916;50.044;15.938;2023-01-10T10:34:14;1.30;;;0.90;;
74465;SDS011;62916;50.044;15.938;2023-01-10T10:36:52;1.30;;;0.80;;
74465;SDS011;62916;50.044;15.938;2023-01-10T10:39:33;1.70;;;0.80;;
74465;SDS011;62916;50.044;15.938;2023-01-10T10:42:10;1.70;;;1.00;;
74465;SDS011;62916;50.044;15.938;2023-01-10T10:44:44;1.30;;;1.10;;
74465;SDS011;62916;50.044;15.938;2023-01-10T10:47:21;1.40;;;0.90;;
74465;SDS011;62916;50.044;15.938;2023-01-10T10:49:57;0.80;;;0.80;;
74465;SDS011;62916;50.044;15.938;2023-01-10T10:52:34;1.30;;;1.10;;
74465;SDS011;62916;50.044;15.938;2023-01-10T10:55:11;1.00;;;0.90;;
74465;SDS011;62916;50.044;15.938;2023-01-10T10:57:43;1.40;;;1.20;;
74465;SDS011;62916;50.044;15.938;2023-01-10T11:00:27;1.80;;;1.10;;
74465;SDS011;62916;50.044;15.938;2023-01-10T11:03:00;1.10;;;0.70;;
74465;SDS011;62916;50.044;15.938;2023-01-10T11:05:36;1.60;;;1.10;;
74465;SDS011;62916;50.044;15.938;2023-01-10T11:08:08;1.30;;;1.00;;
74465;SDS011;62916;50.044;15.938;2023-01-10T11:10:41;0.80;;;0.80;;
74465;SDS011;62916;50.044;15.938;2023-01-10T11:13:18;1.30;;;1.20;;
74465;SDS011;62916;50.044;15.938;2023-01-10T11:15:55;1.40;;;0.90;;
74465;SDS011;62916;50.044;15.938;2023-01-10T11:18:27;1.80;;;1.00;;
74465;SDS011;62916;50.044;15.938;2023-01-10T11:20:59;1.20;;;0.80;;
74465;SDS011;62916;50.044;15.938;2023-01-10T11:23:41;1.40;;;1.00;;
74465;SDS011;62916;50.044;15.938;2023-01-10T11:26:23;1.30;;;0.90;;
74465;SDS011;62916;50.044;15.938;2023-01-10T11:29:04;1.70;;;0.80;;
74465;SDS011;62916;50.044;15.938;2023-01-10T11:31:42;1.60;;;1.10;;
74465;SDS011;62916;50.044;15.938;2023-01-10T11:34:21;1.00;;;0.80;;
74465;SDS011;62916;50.044;15.938;2023-01-10T11:39:24;1.00;;;0.70;;
74465;SDS011;62916;50.044;15.938;2023-01-10T11:41:56;1.30;;;0.90;;
74465;SDS011;62916;50.044;15.938;2023-01-10T11:44:46;1.50;;;0.90;;
74465;SDS011;62916;50.044;15.938;2023-01-10T11:47:17;1.00;;;0.90;;
74465;SDS011;62916;50.044;15.938;2023-01-10T11:49:48;1.30;;;1.00;;
74465;SDS011;62916;50.044;15.938;2023-01-10T11:52:21;2.00;;;1.10;;
74465;SDS011;62916;50.044;15.938;2023-01-10T11:54:54;2.40;;;1.00;;
74465;SDS011;62916;50.044;15.938;2023-01-10T11:57:28;1.10;;;0.80;;
74465;SDS011;62916;50.044;15.938;2023-01-10T12:00:01;1.30;;;0.90;;
74465;SDS011;62916;50.044;15.938;2023-01-10T12:02:35;0.80;;;0.70;;
74465;SDS011;62916;50.044;15.938;2023-01-10T12:05:09;0.90;;;0.70;;
74465;SDS011;62916;50.044;15.938;2023-01-10T12:07:57;1.60;;;1.00;;
74465;SDS011;62916;50.044;15.938;2023-01-10T12:10:33;1.30;;;1.00;;
74465;SDS011;62916;50.044;15.938;2023-01-10T12:13:11;1.40;;;0.90;;
74465;SDS011;62916;50.044;15.938;2023-01-10T12:15:44;0.80;;;0.70;;
74465;SDS011;62916;50.044;15.938;2023-01-10T12:18:16;1.80;;;1.10;;
74465;SDS011;62916;50.044;15.938;2023-01-10T12:20:48;1.00;;;0.90;;
74465;SDS011;62916;50.044;15.938;2023-01-10T12:23:21;1.40;;;1.00;;
74465;SDS011;62916;50.044;15.938;2023-01-10T12:25:56;1.00;;;0.90;;
74465;SDS011;62916;50.044;15.938;2023-01-10T12:28:39;0.80;;;0.70;;
74465;SDS011;62916;50.044;15.938;2023-01-10T12:31:16;1.10;;;0.90;;
74465;SDS011;62916;50.044;15.938;2023-01-10T12:33:52;1.20;;;1.00;;
74465;SDS011;62916;50.044;15.938;2023-01-10T12:36:30;2.30;;;1.10;;
74465;SDS011;62916;50.044;15.938;2023-01-10T12:39:07;2.10;;;1.20;;
74465;SDS011;62916;50.044;15.938;2023-01-10T12:41:50;1.40;;;0.90;;
74465;SDS011;62916;50.044;15.938;2023-01-10T12:45:00;1.50;;;0.80;;
74465;SDS011;62916;50.044;15.938;2023-01-10T12:47:37;1.10;;;0.80;;
74465;SDS011;62916;50.044;15.938;2023-01-10T12:50:20;1.00;;;0.90;;
74465;SDS011;62916;50.044;15.938;2023-01-10T12:52:58;1.10;;;0.90;;
74465;SDS011;62916;50.044;15.938;2023-01-10T12:55:32;1.40;;;1.20;;
74465;SDS011;62916;50.044;15.938;2023-01-10T12:58:10;1.00;;;0.80;;
74465;SDS011;62916;50.044;15.938;2023-01-10T13:00:46;1.20;;;0.90;;
74465;SDS011;62916;50.044;15.938;2023-01-10T13:03:21;1.30;;;0.90;;
74465;SDS011;62916;50.044;15.938;2023-01-10T13:05:58;1.20;;;0.80;;
74465;SDS011;62916;50.044;15.938;2023-01-10T13:08:31;1.30;;;0.60;;
74465;SDS011;62916;50.044;15.938;2023-01-10T13:11:03;1.00;;;0.80;;
74465;SDS011;62916;50.044;15.938;2023-01-10T13:13:36;1.10;;;0.80;;
74465;SDS011;62916;50.044;15.938;2023-01-10T13:16:17;1.30;;;0.90;;
74465;SDS011;62916;50.044;15.938;2023-01-10T13:19:03;0.70;;;0.70;;
74465;SDS011;62916;50.044;15.938;2023-01-10T13:21:51;1.50;;;1.00;;
74465;SDS011;62916;50.044;15.938;2023-01-10T13:24:54;0.90;;;0.70;;
74465;SDS011;62916;50.044;15.938;2023-01-10T13:27:29;1.10;;;1.00;;
74465;SDS011;62916;50.044;15.938;2023-01-10T13:30:02;1.20;;;0.80;;
74465;SDS011;62916;50.044;15.938;2023-01-10T13:32:55;1.50;;;0.80;;
74465;SDS011;62916;50.044;15.938;2023-01-10T13:35:37;1.30;;;0.90;;
74465;SDS011;62916;50.044;15.938;2023-01-10T13:38:16;1.10;;;0.80;;
74465;SDS011;62916;50.044;15.938;2023-01-10T13:40:56;1.10;;;1.00;;
74465;SDS011;62916;50.044;15.938;2023-01-10T13:43:37;1.40;;;0.90;;
74465;SDS011;62916;50.044;15.938;2023-01-10T13:46:35;1.00;;;0.80;;
74465;SDS011;62916;50.044;15.938;2023-01-10T13:55:27;1.40;;;0.90;;
74465;SDS011;62916;50.044;15.938;2023-01-10T13:58:03;1.60;;;0.90;;
74465;SDS011;62916;50.044;15.938;2023-01-10T14:01:20;1.30;;;0.70;;
74465;SDS011;62916;50.044;15.938;2023-01-10T14:04:19;0.70;;;0.70;;
74465;SDS011;62916;50.044;15.938;2023-01-10T14:06:53;1.10;;;1.00;;
74465;SDS011;62916;50.044;15.938;2023-01-10T14:09:30;0.90;;;0.80;;
74465;SDS011;62916;50.044;15.938;2023-01-10T14:12:14;1.30;;;0.80;;
74465;SDS011;62916;50.044;15.938;2023-01-10T14:14:59;1.40;;;0.70;;
74465;SDS011;62916;50.044;15.938;2023-01-10T14:17:34;1.40;;;1.00;;
74465;SDS011;62916;50.044;15.938;2023-01-10T14:20:17;1.10;;;0.80;;
74465;SDS011;62916;50.044;15.938;2023-01-10T14:23:00;1.00;;;0.90;;
74465;SDS011;62916;50.044;15.938;2023-01-10T14:25:34;1.10;;;0.60;;
74465;SDS011;62916;50.044;15.938;2023-01-10T14:28:14;1.50;;;1.10;;
74465;SDS011;62916;50.044;15.938;2023-01-10T14:30:53;1.20;;;0.80;;
74465;SDS011;62916;50.044;15.938;2023-01-10T14:33:30;0.90;;;0.70;;
74465;SDS011;62916;50.044;15.938;2023-01-10T14:38:36;0.90;;;0.70;;
74465;SDS011;62916;50.044;15.938;2023-01-10T14:41:10;1.10;;;1.00;;
74465;SDS011;62916;50.044;15.938;2023-01-10T14:43:47;0.80;;;0.70;;
74465;SDS011;62916;50.044;15.938;2023-01-10T14:46:23;1.30;;;0.90;;
74465;SDS011;62916;50.044;15.938;2023-01-10T14:48:59;1.00;;;0.70;;
74465;SDS011;62916;50.044;15.938;2023-01-10T14:51:30;1.20;;;0.90;;
74465;SDS011;62916;50.044;15.938;2023-01-10T14:54:02;1.70;;;0.90;;
74465;SDS011;62916;50.044;15.938;2023-01-10T14:56:40;1.40;;;0.80;;
74465;SDS011;62916;50.044;15.938;2023-01-10T15:02:11;1.70;;;1.10;;
74465;SDS011;62916;50.044;15.938;2023-01-10T15:04:51;1.10;;;1.00;;
74465;SDS011;62916;50.044;15.938;2023-01-10T15:07:24;1.10;;;0.70;;
74465;SDS011;62916;50.044;15.938;2023-01-10T15:09:57;1.30;;;0.70;;
74465;SDS011;62916;50.044;15.938;2023-01-10T15:12:31;1.30;;;1.20;;
74465;SDS011;62916;50.044;15.938;2023-01-10T15:15:05;1.10;;;0.80;;
74465;SDS011;62916;50.044;15.938;2023-01-10T15:17:41;1.00;;;0.80;;
74465;SDS011;62916;50.044;15.938;2023-01-10T15:20:14;1.00;;;0.80;;
74465;SDS011;62916;50.044;15.938;2023-01-10T15:22:48;2.90;;;0.70;;
74465;SDS011;62916;50.044;15.938;2023-01-10T15:25:26;3.50;;;1.10;;
74465;SDS011;62916;50.044;15.938;2023-01-10T15:28:10;4.70;;;1.10;;
74465;SDS011;62916;50.044;15.938;2023-01-10T15:30:44;3.60;;;0.80;;
74465;SDS011;62916;50.044;15.938;2023-01-10T15:33:16;5.10;;;1.40;;
74465;SDS011;62916;50.044;15.938;2023-01-10T15:35:53;4.40;;;1.00;;
74465;SDS011;62916;50.044;15.938;2023-01-10T15:38:25;4.10;;;1.30;;
74465;SDS011;62916;50.044;15.938;2023-01-10T15:41:01;2.50;;;0.80;;
74465;SDS011;62916;50.044;15.938;2023-01-10T15:43:34;5.80;;;1.00;;